sensor_id;sensor_type;location;lat;lon;timestamp;temperature;humidity
16736;DHT22;17990;49.548;9.730;2022-07-10T00:01:24;14.00;99.90
16736;DHT22;17990;49.548;9.730;2022-07-10T00:03:51;14.00;99.90
16736;DHT22;17990;49.548;9.730;2022-07-10T00:06:19;14.00;99.90
16736;DHT22;17990;49.548;9.730;2022-07-10T00:08:48;14.00;99.90
16736;DHT22;17990;49.548;9.730;2022-07-10T00:11:14;14.00;99.90
16736;DHT22;17990;49.548;9.730;2022-07-10T00:13:41;14.00;99.90
16736;DHT22;17990;49.548;9.730;2022-07-10T00:16:08;13.90;99.90
16736;DHT22;17990;49.548;9.730;2022-07-10T00:18:35;13.90;99.90
16736;DHT22;17990;49.548;9.730;2022-07-10T00:21:02;13.90;99.90
16736;DHT22;17990;49.548;9.730;2022-07-10T00:23:29;13.80;99.90
16736;DHT22;17990;49.548;9.730;2022-07-10T00:25:57;13.80;99.90
16736;DHT22;17990;49.548;9.730;2022-07-10T00:28:24;13.80;99.90
16736;DHT22;17990;49.548;9.730;2022-07-10T00:30:51;13.80;99.90
16736;DHT22;17990;49.548;9.730;2022-07-10T00:33:17;13.70;99.90
16736;DHT22;17990;49.548;9.730;2022-07-10T00:35:45;13.70;99.90
16736;DHT22;17990;49.548;9.730;2022-07-10T00:38:12;13.70;99.90
16736;DHT22;17990;49.548;9.730;2022-07-10T00:40:39;13.70;99.90
16736;DHT22;17990;49.548;9.730;2022-07-10T00:43:09;13.60;99.90
16736;DHT22;17990;49.548;9.730;2022-07-10T00:45:36;13.60;99.90
16736;DHT22;17990;49.548;9.730;2022-07-10T00:48:04;13.60;99.90
16736;DHT22;17990;49.548;9.730;2022-07-10T00:50:31;13.60;99.90
16736;DHT22;17990;49.548;9.730;2022-07-10T00:53:00;13.60;99.90
16736;DHT22;17990;49.548;9.730;2022-07-10T00:55:28;13.50;99.90
16736;DHT22;17990;49.548;9.730;2022-07-10T00:57:55;13.50;99.90
16736;DHT22;17990;49.548;9.730;2022-07-10T01:00:24;13.50;99.90
16736;DHT22;17990;49.548;9.730;2022-07-10T01:02:52;13.50;99.90
16736;DHT22;17990;49.548;9.730;2022-07-10T01:05:19;13.40;99.90
16736;DHT22;17990;49.548;9.730;2022-07-10T01:07:46;13.40;99.90
16736;DHT22;17990;49.548;9.730;2022-07-10T01:10:13;13.40;99.90
16736;DHT22;17990;49.548;9.730;2022-07-10T01:12:40;13.30;99.90
16736;DHT22;17990;49.548;9.730;2022-07-10T01:15:07;13.30;99.90
16736;DHT22;17990;49.548;9.730;2022-07-10T01:17:37;13.30;99.90
16736;DHT22;17990;49.548;9.730;2022-07-10T01:20:05;13.30;99.90
16736;DHT22;17990;49.548;9.730;2022-07-10T01:22:35;13.30;99.90
16736;DHT22;17990;49.548;9.730;2022-07-10T01:25:03;13.30;99.90
16736;DHT22;17990;49.548;9.730;2022-07-10T01:27:31;13.20;99.90
16736;DHT22;17990;49.548;9.730;2022-07-10T01:29:58;13.20;99.90
16736;DHT22;17990;49.548;9.730;2022-07-10T01:32:26;13.20;99.90
16736;DHT22;17990;49.548;9.730;2022-07-10T01:34:52;13.20;99.90
16736;DHT22;17990;49.548;9.730;2022-07-10T01:37:20;13.10;99.90
16736;DHT22;17990;49.548;9.730;2022-07-10T01:39:48;13.10;99.90
16736;DHT22;17990;49.548;9.730;2022-07-10T01:42:15;13.00;99.90
16736;DHT22;17990;49.548;9.730;2022-07-10T01:44:42;12.90;99.90
16736;DHT22;17990;49.548;9.730;2022-07-10T01:47:09;12.80;99.90
16736;DHT22;17990;49.548;9.730;2022-07-10T01:49:36;12.80;99.90
16736;DHT22;17990;49.548;9.730;2022-07-10T01:52:04;12.80;99.90
16736;DHT22;17990;49.548;9.730;2022-07-10T01:54:31;12.90;99.90
16736;DHT22;17990;49.548;9.730;2022-07-10T01:57:00;12.90;99.90
16736;DHT22;17990;49.548;9.730;2022-07-10T01:59:27;13.00;99.90
16736;DHT22;17990;49.548;9.730;2022-07-10T02:01:53;13.10;99.90
16736;DHT22;17990;49.548;9.730;2022-07-10T02:04:20;13.10;99.90
16736;DHT22;17990;49.548;9.730;2022-07-10T02:07:05;13.10;99.90
16736;DHT22;17990;49.548;9.730;2022-07-10T02:09:32;13.20;99.90
16736;DHT22;17990;49.548;9.730;2022-07-10T02:12:00;13.30;99.90
16736;DHT22;17990;49.548;9.730;2022-07-10T02:14:27;13.40;99.90
16736;DHT22;17990;49.548;9.730;2022-07-10T02:16:54;13.40;99.90
16736;DHT22;17990;49.548;9.730;2022-07-10T02:19:20;13.50;99.90
16736;DHT22;17990;49.548;9.730;2022-07-10T02:21:48;13.50;99.90
16736;DHT22;17990;49.548;9.730;2022-07-10T02:24:15;13.50;99.90
16736;DHT22;17990;49.548;9.730;2022-07-10T02:26:42;13.50;99.90
16736;DHT22;17990;49.548;9.730;2022-07-10T02:29:10;13.50;99.90
16736;DHT22;17990;49.548;9.730;2022-07-10T02:31:37;13.50;99.90
16736;DHT22;17990;49.548;9.730;2022-07-10T02:34:06;13.50;99.90
16736;DHT22;17990;49.548;9.730;2022-07-10T02:36:33;13.50;99.90
16736;DHT22;17990;49.548;9.730;2022-07-10T02:39:00;13.50;99.90
16736;DHT22;17990;49.548;9.730;2022-07-10T02:41:27;13.50;99.90
16736;DHT22;17990;49.548;9.730;2022-07-10T02:43:54;13.50;99.90
16736;DHT22;17990;49.548;9.730;2022-07-10T02:46:22;13.50;99.90
16736;DHT22;17990;49.548;9.730;2022-07-10T02:48:49;13.50;99.90
16736;DHT22;17990;49.548;9.730;2022-07-10T02:51:16;13.40;99.90
16736;DHT22;17990;49.548;9.730;2022-07-10T02:53:43;13.50;99.90
16736;DHT22;17990;49.548;9.730;2022-07-10T02:56:10;13.50;99.90
16736;DHT22;17990;49.548;9.730;2022-07-10T02:58:38;13.60;99.90
16736;DHT22;17990;49.548;9.730;2022-07-10T03:01:05;13.70;99.90
16736;DHT22;17990;49.548;9.730;2022-07-10T03:03:33;13.80;99.90
16736;DHT22;17990;49.548;9.730;2022-07-10T03:06:00;13.80;99.90
16736;DHT22;17990;49.548;9.730;2022-07-10T03:08:27;13.80;99.90
16736;DHT22;17990;49.548;9.730;2022-07-10T03:10:55;13.80;99.90
16736;DHT22;17990;49.548;9.730;2022-07-10T03:13:22;13.80;99.90
16736;DHT22;17990;49.548;9.730;2022-07-10T03:15:49;13.70;99.90
16736;DHT22;17990;49.548;9.730;2022-07-10T03:18:16;13.60;99.90
16736;DHT22;17990;49.548;9.730;2022-07-10T03:20:44;13.60;99.90
16736;DHT22;17990;49.548;9.730;2022-07-10T03:23:11;13.50;99.90
16736;DHT22;17990;49.548;9.730;2022-07-10T03:25:38;13.50;99.90
16736;DHT22;17990;49.548;9.730;2022-07-10T03:28:05;13.50;99.90
16736;DHT22;17990;49.548;9.730;2022-07-10T03:30:31;13.40;99.90
16736;DHT22;17990;49.548;9.730;2022-07-10T03:32:58;13.40;99.90
16736;DHT22;17990;49.548;9.730;2022-07-10T03:35:26;13.30;99.90
16736;DHT22;17990;49.548;9.730;2022-07-10T03:37:54;13.30;99.90
16736;DHT22;17990;49.548;9.730;2022-07-10T03:40:21;13.40;99.90
16736;DHT22;17990;49.548;9.730;2022-07-10T03:42:48;13.50;99.90
16736;DHT22;17990;49.548;9.730;2022-07-10T03:45:15;13.50;99.90
16736;DHT22;17990;49.548;9.730;2022-07-10T03:47:42;13.60;99.90
16736;DHT22;17990;49.548;9.730;2022-07-10T03:50:09;13.70;99.90
16736;DHT22;17990;49.548;9.730;2022-07-10T03:52:36;13.80;99.90
16736;DHT22;17990;49.548;9.730;2022-07-10T03:55:05;13.90;99.90
16736;DHT22;17990;49.548;9.730;2022-07-10T03:57:32;14.00;99.90
16736;DHT22;17990;49.548;9.730;2022-07-10T04:00:17;14.20;99.90
16736;DHT22;17990;49.548;9.730;2022-07-10T04:02:44;14.30;99.90
16736;DHT22;17990;49.548;9.730;2022-07-10T04:05:10;14.40;99.90
16736;DHT22;17990;49.548;9.730;2022-07-10T04:07:37;14.40;99.90
16736;DHT22;17990;49.548;9.730;2022-07-10T04:10:07;14.50;99.90
16736;DHT22;17990;49.548;9.730;2022-07-10T04:12:35;14.40;99.90
16736;DHT22;17990;49.548;9.730;2022-07-10T04:15:02;14.50;99.90
16736;DHT22;17990;49.548;9.730;2022-07-10T04:17:29;14.50;99.90
16736;DHT22;17990;49.548;9.730;2022-07-10T04:19:57;14.50;99.90
16736;DHT22;17990;49.548;9.730;2022-07-10T04:22:25;14.40;99.90
16736;DHT22;17990;49.548;9.730;2022-07-10T04:24:53;14.50;99.90
16736;DHT22;17990;49.548;9.730;2022-07-10T04:27:21;14.70;99.90
16736;DHT22;17990;49.548;9.730;2022-07-10T04:29:48;14.90;99.90
16736;DHT22;17990;49.548;9.730;2022-07-10T04:32:16;15.10;99.90
16736;DHT22;17990;49.548;9.730;2022-07-10T04:34:43;15.20;99.90
16736;DHT22;17990;49.548;9.730;2022-07-10T04:37:10;15.20;99.90
16736;DHT22;17990;49.548;9.730;2022-07-10T04:39:37;15.30;99.90
16736;DHT22;17990;49.548;9.730;2022-07-10T04:42:05;15.50;99.90
16736;DHT22;17990;49.548;9.730;2022-07-10T04:44:35;15.50;99.90
16736;DHT22;17990;49.548;9.730;2022-07-10T04:47:03;15.50;99.90
16736;DHT22;17990;49.548;9.730;2022-07-10T04:49:30;15.50;99.90
16736;DHT22;17990;49.548;9.730;2022-07-10T04:51:57;15.30;99.90
16736;DHT22;17990;49.548;9.730;2022-07-10T04:54:24;15.20;99.90
16736;DHT22;17990;49.548;9.730;2022-07-10T04:56:51;15.20;99.90
16736;DHT22;17990;49.548;9.730;2022-07-10T04:59:18;15.20;99.90
16736;DHT22;17990;49.548;9.730;2022-07-10T05:01:46;15.30;99.90
16736;DHT22;17990;49.548;9.730;2022-07-10T05:04:13;15.50;99.90
16736;DHT22;17990;49.548;9.730;2022-07-10T05:06:40;15.70;99.90
16736;DHT22;17990;49.548;9.730;2022-07-10T05:09:07;15.80;99.90
16736;DHT22;17990;49.548;9.730;2022-07-10T05:11:34;15.70;99.90
16736;DHT22;17990;49.548;9.730;2022-07-10T05:14:01;15.60;99.90
16736;DHT22;17990;49.548;9.730;2022-07-10T05:16:28;15.50;99.90
16736;DHT22;17990;49.548;9.730;2022-07-10T05:18:56;15.30;99.90
16736;DHT22;17990;49.548;9.730;2022-07-10T05:21:23;15.30;99.90
16736;DHT22;17990;49.548;9.730;2022-07-10T05:23:50;15.30;99.90
16736;DHT22;17990;49.548;9.730;2022-07-10T05:26:18;15.40;99.90
16736;DHT22;17990;49.548;9.730;2022-07-10T05:28:45;17.40;99.90
16736;DHT22;17990;49.548;9.730;2022-07-10T05:31:11;22.00;99.90
16736;DHT22;17990;49.548;9.730;2022-07-10T05:33:38;24.40;95.80
16736;DHT22;17990;49.548;9.730;2022-07-10T05:36:07;24.00;92.90
16736;DHT22;17990;49.548;9.730;2022-07-10T05:38:34;25.90;88.30
16736;DHT22;17990;49.548;9.730;2022-07-10T05:41:02;25.60;82.50
16736;DHT22;17990;49.548;9.730;2022-07-10T05:43:29;23.60;86.80
16736;DHT22;17990;49.548;9.730;2022-07-10T05:45:56;24.70;84.70
16736;DHT22;17990;49.548;9.730;2022-07-10T05:48:23;27.20;75.30
16736;DHT22;17990;49.548;9.730;2022-07-10T05:50:50;29.60;66.20
16736;DHT22;17990;49.548;9.730;2022-07-10T05:53:18;31.10;58.90
16736;DHT22;17990;49.548;9.730;2022-07-10T05:55:46;32.00;54.30
16736;DHT22;17990;49.548;9.730;2022-07-10T05:58:13;31.90;52.20
16736;DHT22;17990;49.548;9.730;2022-07-10T06:00:40;31.20;52.10
16736;DHT22;17990;49.548;9.730;2022-07-10T06:03:08;32.00;51.20
16736;DHT22;17990;49.548;9.730;2022-07-10T06:05:36;31.40;51.40
16736;DHT22;17990;49.548;9.730;2022-07-10T06:08:03;28.50;55.40
16736;DHT22;17990;49.548;9.730;2022-07-10T06:10:31;26.30;59.60
16736;DHT22;17990;49.548;9.730;2022-07-10T06:12:58;26.10;59.60
16736;DHT22;17990;49.548;9.730;2022-07-10T06:15:25;24.80;63.10
16736;DHT22;17990;49.548;9.730;2022-07-10T06:17:53;23.80;66.10
16736;DHT22;17990;49.548;9.730;2022-07-10T06:20:23;23.20;67.50
16736;DHT22;17990;49.548;9.730;2022-07-10T06:22:49;22.60;69.00
16736;DHT22;17990;49.548;9.730;2022-07-10T06:25:16;21.90;72.20
16736;DHT22;17990;49.548;9.730;2022-07-10T06:27:45;21.40;73.30
16736;DHT22;17990;49.548;9.730;2022-07-10T06:30:12;20.90;75.00
16736;DHT22;17990;49.548;9.730;2022-07-10T06:32:39;20.50;74.40
16736;DHT22;17990;49.548;9.730;2022-07-10T06:35:07;20.10;75.30
16736;DHT22;17990;49.548;9.730;2022-07-10T06:37:34;19.90;76.70
16736;DHT22;17990;49.548;9.730;2022-07-10T06:40:01;24.50;65.10
16736;DHT22;17990;49.548;9.730;2022-07-10T06:42:27;28.50;54.10
16736;DHT22;17990;49.548;9.730;2022-07-10T06:44:56;31.30;46.40
16736;DHT22;17990;49.548;9.730;2022-07-10T06:47:23;26.90;52.40
16736;DHT22;17990;49.548;9.730;2022-07-10T06:50:09;25.40;55.40
16736;DHT22;17990;49.548;9.730;2022-07-10T06:52:36;28.90;50.00
16736;DHT22;17990;49.548;9.730;2022-07-10T06:55:04;27.50;51.00
16736;DHT22;17990;49.548;9.730;2022-07-10T06:57:32;24.70;55.50
16736;DHT22;17990;49.548;9.730;2022-07-10T07:00:00;24.40;56.40
16736;DHT22;17990;49.548;9.730;2022-07-10T07:02:27;29.00;47.30
16736;DHT22;17990;49.548;9.730;2022-07-10T07:04:54;26.60;50.30
16736;DHT22;17990;49.548;9.730;2022-07-10T07:07:21;25.90;51.90
16736;DHT22;17990;49.548;9.730;2022-07-10T07:09:48;24.10;56.40
16736;DHT22;17990;49.548;9.730;2022-07-10T07:12:16;22.60;59.80
16736;DHT22;17990;49.548;9.730;2022-07-10T07:14:43;21.50;63.10
16736;DHT22;17990;49.548;9.730;2022-07-10T07:17:11;20.90;65.20
16736;DHT22;17990;49.548;9.730;2022-07-10T07:19:40;20.70;66.00
16736;DHT22;17990;49.548;9.730;2022-07-10T07:22:25;20.60;67.00
16736;DHT22;17990;49.548;9.730;2022-07-10T07:25:11;20.30;67.50
16736;DHT22;17990;49.548;9.730;2022-07-10T07:27:38;20.10;68.40
16736;DHT22;17990;49.548;9.730;2022-07-10T07:30:07;20.00;68.90
16736;DHT22;17990;49.548;9.730;2022-07-10T07:32:38;19.90;69.60
16736;DHT22;17990;49.548;9.730;2022-07-10T07:35:06;19.60;68.80
16736;DHT22;17990;49.548;9.730;2022-07-10T07:37:35;19.40;68.60
16736;DHT22;17990;49.548;9.730;2022-07-10T07:40:04;19.30;68.70
16736;DHT22;17990;49.548;9.730;2022-07-10T07:42:32;19.50;67.50
16736;DHT22;17990;49.548;9.730;2022-07-10T07:44:59;20.00;66.90
16736;DHT22;17990;49.548;9.730;2022-07-10T07:47:26;21.00;64.50
16736;DHT22;17990;49.548;9.730;2022-07-10T07:49:55;21.30;62.60
16736;DHT22;17990;49.548;9.730;2022-07-10T07:52:22;22.80;59.90
16736;DHT22;17990;49.548;9.730;2022-07-10T07:54:49;27.10;51.70
16736;DHT22;17990;49.548;9.730;2022-07-10T07:57:16;28.60;48.30
16736;DHT22;17990;49.548;9.730;2022-07-10T07:59:44;25.40;52.90
16736;DHT22;17990;49.548;9.730;2022-07-10T08:02:11;23.70;56.70
16736;DHT22;17990;49.548;9.730;2022-07-10T08:04:37;22.70;58.00
16736;DHT22;17990;49.548;9.730;2022-07-10T08:07:06;22.00;60.30
16736;DHT22;17990;49.548;9.730;2022-07-10T08:09:32;21.90;61.00
16736;DHT22;17990;49.548;9.730;2022-07-10T08:12:00;22.70;58.80
16736;DHT22;17990;49.548;9.730;2022-07-10T08:14:27;22.00;60.30
16736;DHT22;17990;49.548;9.730;2022-07-10T08:16:54;22.50;59.20
16736;DHT22;17990;49.548;9.730;2022-07-10T08:19:21;23.20;58.90
16736;DHT22;17990;49.548;9.730;2022-07-10T08:21:48;25.70;54.50
16736;DHT22;17990;49.548;9.730;2022-07-10T08:24:16;26.70;52.00
16736;DHT22;17990;49.548;9.730;2022-07-10T08:26:44;27.30;50.50
16736;DHT22;17990;49.548;9.730;2022-07-10T08:29:11;27.30;49.60
16736;DHT22;17990;49.548;9.730;2022-07-10T08:31:38;27.50;49.00
16736;DHT22;17990;49.548;9.730;2022-07-10T08:34:05;27.50;49.60
16736;DHT22;17990;49.548;9.730;2022-07-10T08:36:32;27.80;48.40
16736;DHT22;17990;49.548;9.730;2022-07-10T08:38:59;28.10;48.20
16736;DHT22;17990;49.548;9.730;2022-07-10T08:41:27;28.50;48.20
16736;DHT22;17990;49.548;9.730;2022-07-10T08:43:54;27.40;49.20
16736;DHT22;17990;49.548;9.730;2022-07-10T08:46:21;25.60;52.00
16736;DHT22;17990;49.548;9.730;2022-07-10T08:48:49;23.90;55.30
16736;DHT22;17990;49.548;9.730;2022-07-10T08:51:23;23.70;56.20
16736;DHT22;17990;49.548;9.730;2022-07-10T08:53:54;23.50;55.90
16736;DHT22;17990;49.548;9.730;2022-07-10T08:56:22;22.50;58.40
16736;DHT22;17990;49.548;9.730;2022-07-10T08:58:52;22.60;58.30
16736;DHT22;17990;49.548;9.730;2022-07-10T09:01:20;22.30;59.10
16736;DHT22;17990;49.548;9.730;2022-07-10T09:03:48;22.10;59.30
16736;DHT22;17990;49.548;9.730;2022-07-10T09:06:16;22.20;59.60
16736;DHT22;17990;49.548;9.730;2022-07-10T09:09:02;22.50;59.10
16736;DHT22;17990;49.548;9.730;2022-07-10T09:11:31;23.80;55.90
16736;DHT22;17990;49.548;9.730;2022-07-10T09:14:00;24.20;53.90
16736;DHT22;17990;49.548;9.730;2022-07-10T09:16:32;24.00;54.90
16736;DHT22;17990;49.548;9.730;2022-07-10T09:19:15;23.50;56.30
16736;DHT22;17990;49.548;9.730;2022-07-10T09:21:44;23.50;56.80
16736;DHT22;17990;49.548;9.730;2022-07-10T09:24:11;23.30;57.60
16736;DHT22;17990;49.548;9.730;2022-07-10T09:26:39;23.00;58.10
16736;DHT22;17990;49.548;9.730;2022-07-10T09:29:10;22.80;58.10
16736;DHT22;17990;49.548;9.730;2022-07-10T09:31:50;23.00;58.60
16736;DHT22;17990;49.548;9.730;2022-07-10T09:34:18;22.90;58.30
16736;DHT22;17990;49.548;9.730;2022-07-10T09:36:45;22.90;57.80
16736;DHT22;17990;49.548;9.730;2022-07-10T09:39:12;22.70;58.00
16736;DHT22;17990;49.548;9.730;2022-07-10T09:41:39;22.50;58.60
16736;DHT22;17990;49.548;9.730;2022-07-10T09:44:06;22.10;58.40
16736;DHT22;17990;49.548;9.730;2022-07-10T09:46:38;21.80;60.20
16736;DHT22;17990;49.548;9.730;2022-07-10T09:49:08;21.80;60.70
16736;DHT22;17990;49.548;9.730;2022-07-10T09:51:37;22.60;58.60
16736;DHT22;17990;49.548;9.730;2022-07-10T09:54:07;23.40;57.40
16736;DHT22;17990;49.548;9.730;2022-07-10T09:56:42;23.90;55.40
16736;DHT22;17990;49.548;9.730;2022-07-10T09:59:14;23.60;55.90
16736;DHT22;17990;49.548;9.730;2022-07-10T10:01:46;23.00;57.20
16736;DHT22;17990;49.548;9.730;2022-07-10T10:04:14;22.70;57.40
16736;DHT22;17990;49.548;9.730;2022-07-10T10:06:43;22.40;58.30
16736;DHT22;17990;49.548;9.730;2022-07-10T10:09:19;22.40;57.90
16736;DHT22;17990;49.548;9.730;2022-07-10T10:11:54;22.00;58.60
16736;DHT22;17990;49.548;9.730;2022-07-10T10:14:25;21.90;59.70
16736;DHT22;17990;49.548;9.730;2022-07-10T10:16:55;22.30;59.10
16736;DHT22;17990;49.548;9.730;2022-07-10T10:19:23;22.30;58.80
16736;DHT22;17990;49.548;9.730;2022-07-10T10:22:08;22.40;58.80
16736;DHT22;17990;49.548;9.730;2022-07-10T10:24:38;22.80;58.50
16736;DHT22;17990;49.548;9.730;2022-07-10T10:27:06;22.90;57.50
16736;DHT22;17990;49.548;9.730;2022-07-10T10:29:36;22.90;57.30
16736;DHT22;17990;49.548;9.730;2022-07-10T10:32:04;23.40;56.50
16736;DHT22;17990;49.548;9.730;2022-07-10T10:34:38;24.00;55.50
16736;DHT22;17990;49.548;9.730;2022-07-10T10:37:06;24.30;55.20
16736;DHT22;17990;49.548;9.730;2022-07-10T10:39:53;24.20;55.70
16736;DHT22;17990;49.548;9.730;2022-07-10T10:42:35;24.10;56.00
16736;DHT22;17990;49.548;9.730;2022-07-10T10:45:26;23.80;56.80
16736;DHT22;17990;49.548;9.730;2022-07-10T10:47:59;23.60;57.60
16736;DHT22;17990;49.548;9.730;2022-07-10T10:50:36;23.60;57.60
16736;DHT22;17990;49.548;9.730;2022-07-10T10:53:05;24.00;56.90
16736;DHT22;17990;49.548;9.730;2022-07-10T10:55:39;24.20;56.10
16736;DHT22;17990;49.548;9.730;2022-07-10T10:58:17;24.00;55.90
16736;DHT22;17990;49.548;9.730;2022-07-10T11:00:47;23.80;56.20
16736;DHT22;17990;49.548;9.730;2022-07-10T11:03:22;23.90;56.00
16736;DHT22;17990;49.548;9.730;2022-07-10T11:05:51;24.40;55.80
16736;DHT22;17990;49.548;9.730;2022-07-10T11:08:40;24.90;55.60
16736;DHT22;17990;49.548;9.730;2022-07-10T11:11:37;25.10;54.20
16736;DHT22;17990;49.548;9.730;2022-07-10T11:14:05;25.00;53.70
16736;DHT22;17990;49.548;9.730;2022-07-10T11:16:34;24.20;55.50
16736;DHT22;17990;49.548;9.730;2022-07-10T11:19:02;24.00;55.90
16736;DHT22;17990;49.548;9.730;2022-07-10T11:21:40;23.90;56.00
16736;DHT22;17990;49.548;9.730;2022-07-10T11:27:27;23.90;55.30
16736;DHT22;17990;49.548;9.730;2022-07-10T11:29:57;24.10;54.50
16736;DHT22;17990;49.548;9.730;2022-07-10T11:32:27;24.30;54.10
16736;DHT22;17990;49.548;9.730;2022-07-10T11:34:54;24.30;55.10
16736;DHT22;17990;49.548;9.730;2022-07-10T11:37:21;24.20;55.20
16736;DHT22;17990;49.548;9.730;2022-07-10T11:40:08;24.30;55.50
16736;DHT22;17990;49.548;9.730;2022-07-10T11:42:53;24.50;55.00
16736;DHT22;17990;49.548;9.730;2022-07-10T11:45:25;24.40;55.10
16736;DHT22;17990;49.548;9.730;2022-07-10T11:47:54;24.30;54.60
16736;DHT22;17990;49.548;9.730;2022-07-10T11:50:22;23.90;55.40
16736;DHT22;17990;49.548;9.730;2022-07-10T11:52:49;23.90;55.60
16736;DHT22;17990;49.548;9.730;2022-07-10T11:55:17;24.00;54.60
16736;DHT22;17990;49.548;9.730;2022-07-10T11:57:45;24.10;54.40
16736;DHT22;17990;49.548;9.730;2022-07-10T12:00:24;24.20;54.00
16736;DHT22;17990;49.548;9.730;2022-07-10T12:02:54;24.00;54.00
16736;DHT22;17990;49.548;9.730;2022-07-10T12:05:31;23.80;55.50
16736;DHT22;17990;49.548;9.730;2022-07-10T12:07:59;23.40;56.00
16736;DHT22;17990;49.548;9.730;2022-07-10T12:10:27;23.40;56.40
16736;DHT22;17990;49.548;9.730;2022-07-10T12:13:02;23.40;56.60
16736;DHT22;17990;49.548;9.730;2022-07-10T12:15:34;23.70;56.00
16736;DHT22;17990;49.548;9.730;2022-07-10T12:18:05;24.60;54.60
16736;DHT22;17990;49.548;9.730;2022-07-10T12:20:32;24.90;53.80
16736;DHT22;17990;49.548;9.730;2022-07-10T12:23:00;24.90;54.00
16736;DHT22;17990;49.548;9.730;2022-07-10T12:25:27;24.90;53.60
16736;DHT22;17990;49.548;9.730;2022-07-10T12:27:55;24.90;53.30
16736;DHT22;17990;49.548;9.730;2022-07-10T12:30:23;25.00;53.00
16736;DHT22;17990;49.548;9.730;2022-07-10T12:32:51;24.60;53.40
16736;DHT22;17990;49.548;9.730;2022-07-10T12:35:19;24.10;55.00
16736;DHT22;17990;49.548;9.730;2022-07-10T12:37:47;24.00;55.10
16736;DHT22;17990;49.548;9.730;2022-07-10T12:40:30;23.70;55.80
16736;DHT22;17990;49.548;9.730;2022-07-10T12:43:03;23.60;56.40
16736;DHT22;17990;49.548;9.730;2022-07-10T12:45:31;23.30;57.30
16736;DHT22;17990;49.548;9.730;2022-07-10T12:47:58;23.40;56.90
16736;DHT22;17990;49.548;9.730;2022-07-10T12:50:26;23.30;57.20
16736;DHT22;17990;49.548;9.730;2022-07-10T12:53:10;23.20;57.50
16736;DHT22;17990;49.548;9.730;2022-07-10T12:55:39;23.60;57.50
16736;DHT22;17990;49.548;9.730;2022-07-10T12:58:08;23.90;56.80
16736;DHT22;17990;49.548;9.730;2022-07-10T13:00:45;24.40;56.30
16736;DHT22;17990;49.548;9.730;2022-07-10T13:03:18;25.00;55.00
16736;DHT22;17990;49.548;9.730;2022-07-10T13:05:49;25.10;54.60
16736;DHT22;17990;49.548;9.730;2022-07-10T13:08:17;24.90;53.60
16736;DHT22;17990;49.548;9.730;2022-07-10T13:10:48;24.60;54.80
16736;DHT22;17990;49.548;9.730;2022-07-10T13:13:17;24.50;54.50
16736;DHT22;17990;49.548;9.730;2022-07-10T13:15:44;24.30;55.10
16736;DHT22;17990;49.548;9.730;2022-07-10T13:18:16;23.70;56.50
16736;DHT22;17990;49.548;9.730;2022-07-10T13:20:44;23.20;57.70
16736;DHT22;17990;49.548;9.730;2022-07-10T13:23:13;23.20;58.50
16736;DHT22;17990;49.548;9.730;2022-07-10T13:25:40;23.20;58.20
16736;DHT22;17990;49.548;9.730;2022-07-10T13:28:09;23.00;58.70
16736;DHT22;17990;49.548;9.730;2022-07-10T13:30:36;23.50;58.10
16736;DHT22;17990;49.548;9.730;2022-07-10T13:33:04;23.90;57.00
16736;DHT22;17990;49.548;9.730;2022-07-10T13:35:31;24.20;56.50
16736;DHT22;17990;49.548;9.730;2022-07-10T13:38:00;24.20;55.70
16736;DHT22;17990;49.548;9.730;2022-07-10T13:40:31;24.20;55.70
16736;DHT22;17990;49.548;9.730;2022-07-10T13:42:58;24.10;56.20
16736;DHT22;17990;49.548;9.730;2022-07-10T13:45:26;24.30;56.30
16736;DHT22;17990;49.548;9.730;2022-07-10T13:47:57;24.30;56.20
16736;DHT22;17990;49.548;9.730;2022-07-10T13:50:25;24.40;56.00
16736;DHT22;17990;49.548;9.730;2022-07-10T13:52:52;24.70;55.80
16736;DHT22;17990;49.548;9.730;2022-07-10T13:55:18;24.80;55.60
16736;DHT22;17990;49.548;9.730;2022-07-10T13:57:47;24.80;55.70
16736;DHT22;17990;49.548;9.730;2022-07-10T14:00:14;24.80;55.00
16736;DHT22;17990;49.548;9.730;2022-07-10T14:02:41;24.30;56.10
16736;DHT22;17990;49.548;9.730;2022-07-10T14:05:08;24.40;56.30
16736;DHT22;17990;49.548;9.730;2022-07-10T14:07:35;24.40;55.90
16736;DHT22;17990;49.548;9.730;2022-07-10T14:10:02;24.50;55.20
16736;DHT22;17990;49.548;9.730;2022-07-10T14:12:30;24.50;55.40
16736;DHT22;17990;49.548;9.730;2022-07-10T14:14:59;24.00;56.40
16736;DHT22;17990;49.548;9.730;2022-07-10T14:17:26;23.90;57.00
16736;DHT22;17990;49.548;9.730;2022-07-10T14:19:55;23.80;57.00
16736;DHT22;17990;49.548;9.730;2022-07-10T14:22:22;23.70;57.70
16736;DHT22;17990;49.548;9.730;2022-07-10T14:24:50;23.70;57.90
16736;DHT22;17990;49.548;9.730;2022-07-10T14:27:17;23.50;58.10
16736;DHT22;17990;49.548;9.730;2022-07-10T14:29:44;23.50;58.50
16736;DHT22;17990;49.548;9.730;2022-07-10T14:32:12;23.70;58.30
16736;DHT22;17990;49.548;9.730;2022-07-10T14:34:39;24.20;57.80
16736;DHT22;17990;49.548;9.730;2022-07-10T14:37:06;24.50;56.60
16736;DHT22;17990;49.548;9.730;2022-07-10T14:39:33;24.60;56.40
16736;DHT22;17990;49.548;9.730;2022-07-10T14:42:00;24.40;56.10
16736;DHT22;17990;49.548;9.730;2022-07-10T14:44:27;24.20;56.40
16736;DHT22;17990;49.548;9.730;2022-07-10T14:46:54;24.20;56.00
16736;DHT22;17990;49.548;9.730;2022-07-10T14:49:22;23.80;56.70
16736;DHT22;17990;49.548;9.730;2022-07-10T14:51:49;23.60;57.40
16736;DHT22;17990;49.548;9.730;2022-07-10T14:54:17;23.40;57.80
16736;DHT22;17990;49.548;9.730;2022-07-10T14:56:44;23.60;57.50
16736;DHT22;17990;49.548;9.730;2022-07-10T14:59:10;23.70;57.50
16736;DHT22;17990;49.548;9.730;2022-07-10T15:01:37;23.50;57.70
16736;DHT22;17990;49.548;9.730;2022-07-10T15:04:04;23.40;58.40
16736;DHT22;17990;49.548;9.730;2022-07-10T15:06:33;23.50;58.30
16736;DHT22;17990;49.548;9.730;2022-07-10T15:09:00;23.70;57.50
16736;DHT22;17990;49.548;9.730;2022-07-10T15:11:27;24.20;56.40
16736;DHT22;17990;49.548;9.730;2022-07-10T15:13:54;24.40;55.90
16736;DHT22;17990;49.548;9.730;2022-07-10T15:16:24;24.10;56.10
16736;DHT22;17990;49.548;9.730;2022-07-10T15:18:51;23.60;57.00
16736;DHT22;17990;49.548;9.730;2022-07-10T15:21:18;23.50;57.40
16736;DHT22;17990;49.548;9.730;2022-07-10T15:23:46;23.30;57.90
16736;DHT22;17990;49.548;9.730;2022-07-10T15:26:14;23.40;57.80
16736;DHT22;17990;49.548;9.730;2022-07-10T15:28:42;23.50;57.80
16736;DHT22;17990;49.548;9.730;2022-07-10T15:31:09;23.20;58.10
16736;DHT22;17990;49.548;9.730;2022-07-10T15:33:36;22.90;59.10
16736;DHT22;17990;49.548;9.730;2022-07-10T15:36:09;22.70;59.70
16736;DHT22;17990;49.548;9.730;2022-07-10T15:38:35;22.60;60.00
16736;DHT22;17990;49.548;9.730;2022-07-10T15:41:04;22.70;60.30
16736;DHT22;17990;49.548;9.730;2022-07-10T15:43:31;22.60;60.70